sensor_id;sensor_type;location;lat;lon;timestamp;P1;durP1;ratioP1;P2;durP2;ratioP2
20480;SDS011;10399;50.754;3.366;2023-07-13T00:00:42;12.90;;;2.47;;
20480;SDS011;10399;50.754;3.366;2023-07-13T00:03:10;14.02;;;3.33;;
20480;SDS011;10399;50.754;3.366;2023-07-13T00:05:40;8.75;;;2.40;;
20480;SDS011;10399;50.754;3.366;2023-07-13T00:08:07;13.98;;;2.60;;
20480;SDS011;10399;50.754;3.366;2023-07-13T00:10:39;9.63;;;2.30;;
20480;SDS011;10399;50.754;3.366;2023-07-13T00:13:10;17.23;;;3.03;;
20480;SDS011;10399;50.754;3.366;2023-07-13T00:15:38;10.77;;;2.55;;
20480;SDS011;10399;50.754;3.366;2023-07-13T00:18:05;13.57;;;2.83;;
20480;SDS011;10399;50.754;3.366;2023-07-13T00:20:32;14.05;;;2.83;;
20480;SDS011;10399;50.754;3.366;2023-07-13T00:23:00;14.02;;;2.60;;
20480;SDS011;10399;50.754;3.366;2023-07-13T00:25:29;16.98;;;3.00;;
20480;SDS011;10399;50.754;3.366;2023-07-13T00:27:56;17.23;;;3.58;;
20480;SDS011;10399;50.754;3.366;2023-07-13T00:30:24;17.85;;;2.85;;
20480;SDS011;10399;50.754;3.366;2023-07-13T00:32:52;11.50;;;3.25;;
20480;SDS011;10399;50.754;3.366;2023-07-13T00:35:37;16.67;;;2.90;;
20480;SDS011;10399;50.754;3.366;2023-07-13T00:38:06;12.98;;;2.92;;
20480;SDS011;10399;50.754;3.366;2023-07-13T00:40:33;19.92;;;3.10;;
20480;SDS011;10399;50.754;3.366;2023-07-13T00:43:00;12.07;;;2.88;;
20480;SDS011;10399;50.754;3.366;2023-07-13T00:47:56;13.68;;;3.38;;
20480;SDS011;10399;50.754;3.366;2023-07-13T00:50:24;19.23;;;3.20;;
20480;SDS011;10399;50.754;3.366;2023-07-13T00:52:54;17.90;;;3.10;;
20480;SDS011;10399;50.754;3.366;2023-07-13T00:55:26;13.07;;;3.58;;
20480;SDS011;10399;50.754;3.366;2023-07-13T00:57:54;11.30;;;2.92;;
20480;SDS011;10399;50.754;3.366;2023-07-13T01:00:21;16.60;;;3.10;;
20480;SDS011;10399;50.754;3.366;2023-07-13T01:02:51;14.75;;;2.90;;
20480;SDS011;10399;50.754;3.366;2023-07-13T01:05:19;18.00;;;3.17;;
20480;SDS011;10399;50.754;3.366;2023-07-13T01:07:53;14.45;;;2.72;;
20480;SDS011;10399;50.754;3.366;2023-07-13T01:10:23;16.70;;;3.47;;
20480;SDS011;10399;50.754;3.366;2023-07-13T01:12:52;19.70;;;3.42;;
20480;SDS011;10399;50.754;3.366;2023-07-13T01:18:25;18.92;;;3.03;;
20480;SDS011;10399;50.754;3.366;2023-07-13T01:21:03;17.90;;;3.60;;
20480;SDS011;10399;50.754;3.366;2023-07-13T01:23:35;21.23;;;3.08;;
20480;SDS011;10399;50.754;3.366;2023-07-13T01:26:07;17.20;;;3.70;;
20480;SDS011;10399;50.754;3.366;2023-07-13T01:28:42;13.43;;;3.25;;
20480;SDS011;10399;50.754;3.366;2023-07-13T01:31:16;13.55;;;3.28;;
20480;SDS011;10399;50.754;3.366;2023-07-13T01:33:54;19.50;;;3.63;;
20480;SDS011;10399;50.754;3.366;2023-07-13T01:36:26;21.38;;;3.67;;
20480;SDS011;10399;50.754;3.366;2023-07-13T01:39:12;20.38;;;3.25;;
20480;SDS011;10399;50.754;3.366;2023-07-13T01:41:46;16.60;;;3.42;;
20480;SDS011;10399;50.754;3.366;2023-07-13T01:44:21;17.77;;;3.53;;
20480;SDS011;10399;50.754;3.366;2023-07-13T01:46:53;14.75;;;3.08;;
20480;SDS011;10399;50.754;3.366;2023-07-13T01:49:25;18.05;;;3.50;;
20480;SDS011;10399;50.754;3.366;2023-07-13T01:51:57;17.98;;;3.28;;
20480;SDS011;10399;50.754;3.366;2023-07-13T01:54:27;14.70;;;3.22;;
20480;SDS011;10399;50.754;3.366;2023-07-13T01:56:58;12.77;;;3.25;;
20480;SDS011;10399;50.754;3.366;2023-07-13T01:59:29;16.05;;;3.40;;
20480;SDS011;10399;50.754;3.366;2023-07-13T02:01:58;17.73;;;3.22;;
20480;SDS011;10399;50.754;3.366;2023-07-13T02:04:26;16.05;;;3.13;;
20480;SDS011;10399;50.754;3.366;2023-07-13T02:06:56;17.55;;;3.25;;
20480;SDS011;10399;50.754;3.366;2023-07-13T02:09:26;20.05;;;3.70;;
20480;SDS011;10399;50.754;3.366;2023-07-13T02:11:57;14.18;;;3.25;;
20480;SDS011;10399;50.754;3.366;2023-07-13T02:14:28;13.35;;;3.35;;
20480;SDS011;10399;50.754;3.366;2023-07-13T02:17:01;16.17;;;3.83;;
20480;SDS011;10399;50.754;3.366;2023-07-13T02:19:33;17.55;;;3.08;;
20480;SDS011;10399;50.754;3.366;2023-07-13T02:22:03;14.02;;;3.30;;
20480;SDS011;10399;50.754;3.366;2023-07-13T02:24:33;16.65;;;3.22;;
20480;SDS011;10399;50.754;3.366;2023-07-13T02:27:03;11.52;;;3.13;;
20480;SDS011;10399;50.754;3.366;2023-07-13T02:29:35;20.80;;;3.50;;
20480;SDS011;10399;50.754;3.366;2023-07-13T02:32:05;13.00;;;3.40;;
20480;SDS011;10399;50.754;3.366;2023-07-13T02:34:36;12.68;;;3.47;;
20480;SDS011;10399;50.754;3.366;2023-07-13T02:37:13;17.20;;;3.55;;
20480;SDS011;10399;50.754;3.366;2023-07-13T02:39:44;18.52;;;3.47;;
20480;SDS011;10399;50.754;3.366;2023-07-13T02:42:17;19.00;;;3.67;;
20480;SDS011;10399;50.754;3.366;2023-07-13T02:44:46;20.85;;;3.63;;
20480;SDS011;10399;50.754;3.366;2023-07-13T02:47:19;13.05;;;2.83;;
20480;SDS011;10399;50.754;3.366;2023-07-13T02:49:49;11.95;;;3.42;;
20480;SDS011;10399;50.754;3.366;2023-07-13T02:52:19;18.02;;;3.45;;
20480;SDS011;10399;50.754;3.366;2023-07-13T02:54:51;15.77;;;3.25;;
20480;SDS011;10399;50.754;3.366;2023-07-13T02:57:25;11.45;;;2.97;;
20480;SDS011;10399;50.754;3.366;2023-07-13T02:59:58;20.38;;;3.65;;
20480;SDS011;10399;50.754;3.366;2023-07-13T03:02:33;13.23;;;3.75;;
20480;SDS011;10399;50.754;3.366;2023-07-13T03:05:10;16.67;;;3.20;;
20480;SDS011;10399;50.754;3.366;2023-07-13T03:07:40;12.63;;;3.15;;
20480;SDS011;10399;50.754;3.366;2023-07-13T03:10:11;16.20;;;3.40;;
20480;SDS011;10399;50.754;3.366;2023-07-13T03:12:47;14.18;;;3.20;;
20480;SDS011;10399;50.754;3.366;2023-07-13T03:15:26;11.02;;;3.20;;
20480;SDS011;10399;50.754;3.366;2023-07-13T03:17:59;15.05;;;3.30;;
20480;SDS011;10399;50.754;3.366;2023-07-13T03:20:32;18.95;;;4.00;;
20480;SDS011;10399;50.754;3.366;2023-07-13T03:23:00;25.40;;;3.53;;
20480;SDS011;10399;50.754;3.366;2023-07-13T03:25:31;15.30;;;3.42;;
20480;SDS011;10399;50.754;3.366;2023-07-13T03:28:01;18.55;;;3.58;;
20480;SDS011;10399;50.754;3.366;2023-07-13T03:30:28;19.48;;;3.53;;
20480;SDS011;10399;50.754;3.366;2023-07-13T03:32:58;19.95;;;3.50;;
20480;SDS011;10399;50.754;3.366;2023-07-13T03:35:25;16.17;;;3.92;;
20480;SDS011;10399;50.754;3.366;2023-07-13T03:37:53;23.15;;;4.00;;
20480;SDS011;10399;50.754;3.366;2023-07-13T03:40:20;16.77;;;4.07;;
20480;SDS011;10399;50.754;3.366;2023-07-13T03:42:48;15.95;;;3.47;;
20480;SDS011;10399;50.754;3.366;2023-07-13T03:45:17;15.00;;;3.30;;
20480;SDS011;10399;50.754;3.366;2023-07-13T03:47:45;26.00;;;4.22;;
20480;SDS011;10399;50.754;3.366;2023-07-13T03:50:12;19.30;;;3.85;;
20480;SDS011;10399;50.754;3.366;2023-07-13T03:52:39;17.25;;;3.45;;
20480;SDS011;10399;50.754;3.366;2023-07-13T03:55:10;13.55;;;3.63;;
20480;SDS011;10399;50.754;3.366;2023-07-13T03:57:38;17.00;;;3.75;;
20480;SDS011;10399;50.754;3.366;2023-07-13T04:00:07;20.20;;;3.75;;
20480;SDS011;10399;50.754;3.366;2023-07-13T04:02:38;17.88;;;3.53;;
20480;SDS011;10399;50.754;3.366;2023-07-13T04:05:08;16.80;;;3.72;;
20480;SDS011;10399;50.754;3.366;2023-07-13T04:07:35;14.77;;;3.53;;
20480;SDS011;10399;50.754;3.366;2023-07-13T04:10:03;13.02;;;3.05;;
20480;SDS011;10399;50.754;3.366;2023-07-13T04:12:31;15.93;;;3.45;;
20480;SDS011;10399;50.754;3.366;2023-07-13T04:14:59;14.18;;;3.67;;
20480;SDS011;10399;50.754;3.366;2023-07-13T04:17:27;14.77;;;3.65;;
20480;SDS011;10399;50.754;3.366;2023-07-13T04:19:54;15.48;;;3.22;;
20480;SDS011;10399;50.754;3.366;2023-07-13T04:22:22;11.95;;;3.17;;
20480;SDS011;10399;50.754;3.366;2023-07-13T04:24:50;13.35;;;3.28;;
20480;SDS011;10399;50.754;3.366;2023-07-13T04:27:17;18.48;;;3.53;;
20480;SDS011;10399;50.754;3.366;2023-07-13T04:29:44;15.43;;;4.80;;
20480;SDS011;10399;50.754;3.366;2023-07-13T04:32:12;15.80;;;3.08;;
20480;SDS011;10399;50.754;3.366;2023-07-13T04:34:39;21.50;;;3.65;;
20480;SDS011;10399;50.754;3.366;2023-07-13T04:37:06;14.98;;;4.30;;
20480;SDS011;10399;50.754;3.366;2023-07-13T04:39:34;22.08;;;3.47;;
20480;SDS011;10399;50.754;3.366;2023-07-13T04:42:03;15.35;;;3.58;;
20480;SDS011;10399;50.754;3.366;2023-07-13T04:44:33;16.15;;;3.83;;
20480;SDS011;10399;50.754;3.366;2023-07-13T04:47:00;15.32;;;3.60;;
20480;SDS011;10399;50.754;3.366;2023-07-13T04:49:27;15.90;;;3.70;;
20480;SDS011;10399;50.754;3.366;2023-07-13T04:51:55;13.55;;;3.25;;
20480;SDS011;10399;50.754;3.366;2023-07-13T04:54:23;20.38;;;4.40;;
20480;SDS011;10399;50.754;3.366;2023-07-13T04:56:50;16.23;;;3.80;;
20480;SDS011;10399;50.754;3.366;2023-07-13T04:59:18;14.20;;;3.45;;
20480;SDS011;10399;50.754;3.366;2023-07-13T05:01:46;16.10;;;3.72;;
20480;SDS011;10399;50.754;3.366;2023-07-13T05:04:15;24.02;;;4.43;;
20480;SDS011;10399;50.754;3.366;2023-07-13T05:06:45;21.02;;;4.10;;
20480;SDS011;10399;50.754;3.366;2023-07-13T05:09:13;21.52;;;3.75;;
20480;SDS011;10399;50.754;3.366;2023-07-13T05:11:41;16.55;;;3.50;;
20480;SDS011;10399;50.754;3.366;2023-07-13T05:14:09;19.80;;;4.22;;
20480;SDS011;10399;50.754;3.366;2023-07-13T05:16:36;13.05;;;3.08;;
20480;SDS011;10399;50.754;3.366;2023-07-13T05:19:04;13.68;;;3.33;;
20480;SDS011;10399;50.754;3.366;2023-07-13T05:21:31;15.68;;;3.60;;
20480;SDS011;10399;50.754;3.366;2023-07-13T05:23:58;11.70;;;2.90;;
20480;SDS011;10399;50.754;3.366;2023-07-13T05:26:44;14.55;;;3.35;;
20480;SDS011;10399;50.754;3.366;2023-07-13T05:29:13;16.02;;;4.47;;
20480;SDS011;10399;50.754;3.366;2023-07-13T05:31:41;17.88;;;3.95;;
20480;SDS011;10399;50.754;3.366;2023-07-13T05:34:09;13.80;;;4.05;;
20480;SDS011;10399;50.754;3.366;2023-07-13T05:36:37;15.65;;;4.07;;
20480;SDS011;10399;50.754;3.366;2023-07-13T05:39:04;12.95;;;3.85;;
20480;SDS011;10399;50.754;3.366;2023-07-13T05:41:31;16.67;;;4.03;;
20480;SDS011;10399;50.754;3.366;2023-07-13T05:43:58;10.75;;;3.55;;
20480;SDS011;10399;50.754;3.366;2023-07-13T05:46:26;16.98;;;4.10;;
20480;SDS011;10399;50.754;3.366;2023-07-13T05:48:55;16.38;;;3.70;;
20480;SDS011;10399;50.754;3.366;2023-07-13T05:51:23;22.73;;;3.95;;
20480;SDS011;10399;50.754;3.366;2023-07-13T05:53:50;15.63;;;4.30;;
20480;SDS011;10399;50.754;3.366;2023-07-13T05:56:18;18.58;;;4.03;;
20480;SDS011;10399;50.754;3.366;2023-07-13T05:58:45;17.13;;;3.97;;
20480;SDS011;10399;50.754;3.366;2023-07-13T06:01:15;16.13;;;3.55;;
20480;SDS011;10399;50.754;3.366;2023-07-13T06:03:45;15.88;;;3.35;;
20480;SDS011;10399;50.754;3.366;2023-07-13T06:06:15;14.68;;;3.35;;
20480;SDS011;10399;50.754;3.366;2023-07-13T06:08:42;16.92;;;3.40;;
20480;SDS011;10399;50.754;3.366;2023-07-13T06:11:18;24.98;;;3.88;;
20480;SDS011;10399;50.754;3.366;2023-07-13T06:13:48;14.98;;;3.83;;
20480;SDS011;10399;50.754;3.366;2023-07-13T06:16:16;14.82;;;3.65;;
20480;SDS011;10399;50.754;3.366;2023-07-13T06:18:44;13.75;;;3.55;;
20480;SDS011;10399;50.754;3.366;2023-07-13T06:21:14;16.65;;;4.05;;
20480;SDS011;10399;50.754;3.366;2023-07-13T06:23:43;16.25;;;4.50;;
20480;SDS011;10399;50.754;3.366;2023-07-13T06:26:14;14.90;;;3.63;;
20480;SDS011;10399;50.754;3.366;2023-07-13T06:28:42;18.65;;;3.95;;
20480;SDS011;10399;50.754;3.366;2023-07-13T06:31:11;19.48;;;3.65;;
20480;SDS011;10399;50.754;3.366;2023-07-13T06:33:40;22.27;;;3.50;;
20480;SDS011;10399;50.754;3.366;2023-07-13T06:36:08;15.68;;;3.58;;
20480;SDS011;10399;50.754;3.366;2023-07-13T06:38:36;16.25;;;3.30;;
20480;SDS011;10399;50.754;3.366;2023-07-13T06:41:04;18.83;;;3.95;;
20480;SDS011;10399;50.754;3.366;2023-07-13T06:43:32;17.27;;;4.00;;
20480;SDS011;10399;50.754;3.366;2023-07-13T06:46:00;14.80;;;3.28;;
20480;SDS011;10399;50.754;3.366;2023-07-13T06:48:27;19.98;;;4.30;;
20480;SDS011;10399;50.754;3.366;2023-07-13T06:50:56;12.80;;;3.70;;
20480;SDS011;10399;50.754;3.366;2023-07-13T06:53:24;16.10;;;3.85;;
20480;SDS011;10399;50.754;3.366;2023-07-13T06:55:52;19.38;;;3.70;;
20480;SDS011;10399;50.754;3.366;2023-07-13T06:58:20;16.55;;;3.47;;
20480;SDS011;10399;50.754;3.366;2023-07-13T07:00:50;17.70;;;3.83;;
20480;SDS011;10399;50.754;3.366;2023-07-13T07:03:18;15.43;;;4.05;;
20480;SDS011;10399;50.754;3.366;2023-07-13T07:05:46;16.42;;;3.58;;
20480;SDS011;10399;50.754;3.366;2023-07-13T07:08:13;17.35;;;3.90;;
20480;SDS011;10399;50.754;3.366;2023-07-13T07:10:41;13.70;;;4.07;;
20480;SDS011;10399;50.754;3.366;2023-07-13T07:13:10;13.35;;;3.15;;
20480;SDS011;10399;50.754;3.366;2023-07-13T07:15:37;11.60;;;2.88;;
20480;SDS011;10399;50.754;3.366;2023-07-13T07:18:04;22.23;;;3.53;;
20480;SDS011;10399;50.754;3.366;2023-07-13T07:20:33;17.23;;;4.00;;
20480;SDS011;10399;50.754;3.366;2023-07-13T07:23:05;11.88;;;3.33;;
20480;SDS011;10399;50.754;3.366;2023-07-13T07:25:33;16.00;;;3.15;;
20480;SDS011;10399;50.754;3.366;2023-07-13T07:28:03;18.95;;;3.90;;
20480;SDS011;10399;50.754;3.366;2023-07-13T07:30:47;17.50;;;3.55;;
20480;SDS011;10399;50.754;3.366;2023-07-13T07:33:19;14.85;;;3.33;;
20480;SDS011;10399;50.754;3.366;2023-07-13T07:35:47;16.17;;;3.72;;
20480;SDS011;10399;50.754;3.366;2023-07-13T07:38:17;18.08;;;3.67;;
20480;SDS011;10399;50.754;3.366;2023-07-13T07:40:47;15.77;;;3.33;;
20480;SDS011;10399;50.754;3.366;2023-07-13T07:43:19;14.70;;;3.53;;
20480;SDS011;10399;50.754;3.366;2023-07-13T07:45:46;14.65;;;3.05;;
20480;SDS011;10399;50.754;3.366;2023-07-13T07:48:13;11.57;;;2.80;;
20480;SDS011;10399;50.754;3.366;2023-07-13T07:50:43;14.07;;;3.42;;
20480;SDS011;10399;50.754;3.366;2023-07-13T07:53:11;12.57;;;3.13;;
20480;SDS011;10399;50.754;3.366;2023-07-13T07:55:40;8.90;;;3.00;;
20480;SDS011;10399;50.754;3.366;2023-07-13T07:58:27;20.70;;;3.65;;
20480;SDS011;10399;50.754;3.366;2023-07-13T08:01:05;12.32;;;3.20;;
20480;SDS011;10399;50.754;3.366;2023-07-13T08:03:35;13.80;;;2.80;;
20480;SDS011;10399;50.754;3.366;2023-07-13T08:06:05;16.23;;;4.15;;
20480;SDS011;10399;50.754;3.366;2023-07-13T08:08:37;11.82;;;3.10;;
20480;SDS011;10399;50.754;3.366;2023-07-13T08:11:07;18.38;;;2.95;;
20480;SDS011;10399;50.754;3.366;2023-07-13T08:13:38;10.18;;;2.78;;
20480;SDS011;10399;50.754;3.366;2023-07-13T08:16:06;16.23;;;3.13;;
20480;SDS011;10399;50.754;3.366;2023-07-13T08:18:33;10.02;;;2.78;;
20480;SDS011;10399;50.754;3.366;2023-07-13T08:21:05;12.20;;;2.30;;
20480;SDS011;10399;50.754;3.366;2023-07-13T08:23:33;12.13;;;2.88;;
20480;SDS011;10399;50.754;3.366;2023-07-13T08:26:01;10.93;;;2.72;;
20480;SDS011;10399;50.754;3.366;2023-07-13T08:28:31;8.52;;;2.45;;
20480;SDS011;10399;50.754;3.366;2023-07-13T08:31:04;10.10;;;2.30;;
20480;SDS011;10399;50.754;3.366;2023-07-13T08:33:34;8.07;;;2.58;;
20480;SDS011;10399;50.754;3.366;2023-07-13T08:36:02;11.20;;;2.65;;
20480;SDS011;10399;50.754;3.366;2023-07-13T08:38:30;13.80;;;3.00;;
20480;SDS011;10399;50.754;3.366;2023-07-13T08:40:57;10.65;;;2.55;;
20480;SDS011;10399;50.754;3.366;2023-07-13T08:43:34;9.82;;;2.30;;
20480;SDS011;10399;50.754;3.366;2023-07-13T08:46:08;8.88;;;2.03;;
20480;SDS011;10399;50.754;3.366;2023-07-13T08:48:56;8.15;;;2.00;;
20480;SDS011;10399;50.754;3.366;2023-07-13T08:54:10;10.68;;;2.30;;
20480;SDS011;10399;50.754;3.366;2023-07-13T08:56:42;5.63;;;2.17;;
20480;SDS011;10399;50.754;3.366;2023-07-13T08:59:13;7.63;;;1.90;;
20480;SDS011;10399;50.754;3.366;2023-07-13T09:01:51;12.13;;;2.45;;
20480;SDS011;10399;50.754;3.366;2023-07-13T09:04:34;10.02;;;2.40;;
20480;SDS011;10399;50.754;3.366;2023-07-13T09:12:40;8.00;;;2.65;;
20480;SDS011;10399;50.754;3.366;2023-07-13T09:15:21;12.43;;;3.08;;
20480;SDS011;10399;50.754;3.366;2023-07-13T09:17:59;8.93;;;2.40;;
20480;SDS011;10399;50.754;3.366;2023-07-13T09:20:36;10.82;;;2.42;;
20480;SDS011;10399;50.754;3.366;2023-07-13T09:23:09;7.05;;;2.00;;
20480;SDS011;10399;50.754;3.366;2023-07-13T09:25:42;10.73;;;2.15;;
20480;SDS011;10399;50.754;3.366;2023-07-13T09:28:23;10.48;;;2.65;;
20480;SDS011;10399;50.754;3.366;2023-07-13T09:33:21;13.35;;;1.83;;
20480;SDS011;10399;50.754;3.366;2023-07-13T09:35:50;10.30;;;2.65;;
20480;SDS011;10399;50.754;3.366;2023-07-13T09:38:18;9.98;;;2.30;;
20480;SDS011;10399;50.754;3.366;2023-07-13T09:41:04;9.85;;;2.10;;
20480;SDS011;10399;50.754;3.366;2023-07-13T09:46:45;8.00;;;1.88;;
20480;SDS011;10399;50.754;3.366;2023-07-13T09:49:27;6.18;;;2.20;;
20480;SDS011;10399;50.754;3.366;2023-07-13T09:52:06;8.05;;;2.00;;
20480;SDS011;10399;50.754;3.366;2023-07-13T09:54:38;10.38;;;2.00;;
20480;SDS011;10399;50.754;3.366;2023-07-13T09:57:15;5.38;;;1.90;;
20480;SDS011;10399;50.754;3.366;2023-07-13T09:59:45;8.27;;;1.63;;
20480;SDS011;10399;50.754;3.366;2023-07-13T10:05:01;8.00;;;2.13;;
20480;SDS011;10399;50.754;3.366;2023-07-13T10:07:32;3.78;;;1.35;;
20480;SDS011;10399;50.754;3.366;2023-07-13T10:10:12;10.77;;;1.75;;
20480;SDS011;10399;50.754;3.366;2023-07-13T10:12:43;7.75;;;1.30;;
20480;SDS011;10399;50.754;3.366;2023-07-13T10:15:21;6.60;;;1.80;;
20480;SDS011;10399;50.754;3.366;2023-07-13T10:17:54;8.45;;;1.90;;
20480;SDS011;10399;50.754;3.366;2023-07-13T10:20:25;4.93;;;1.70;;
20480;SDS011;10399;50.754;3.366;2023-07-13T10:25:26;4.65;;;1.50;;
20480;SDS011;10399;50.754;3.366;2023-07-13T10:28:01;3.97;;;1.40;;
20480;SDS011;10399;50.754;3.366;2023-07-13T10:30:40;10.93;;;1.48;;
20480;SDS011;10399;50.754;3.366;2023-07-13T10:33:12;6.40;;;1.65;;
20480;SDS011;10399;50.754;3.366;2023-07-13T10:35:41;3.72;;;1.48;;
20480;SDS011;10399;50.754;3.366;2023-07-13T10:38:11;6.00;;;1.10;;
20480;SDS011;10399;50.754;3.366;2023-07-13T10:41:05;3.47;;;1.20;;
20480;SDS011;10399;50.754;3.366;2023-07-13T10:43:43;8.02;;;2.25;;
20480;SDS011;10399;50.754;3.366;2023-07-13T10:46:14;7.65;;;1.88;;
20480;SDS011;10399;50.754;3.366;2023-07-13T10:48:45;7.97;;;2.10;;
20480;SDS011;10399;50.754;3.366;2023-07-13T10:51:16;6.93;;;2.45;;
20480;SDS011;10399;50.754;3.366;2023-07-13T10:53:47;4.40;;;1.80;;
20480;SDS011;10399;50.754;3.366;2023-07-13T10:56:35;6.38;;;2.20;;
20480;SDS011;10399;50.754;3.366;2023-07-13T10:59:09;5.13;;;2.22;;
20480;SDS011;10399;50.754;3.366;2023-07-13T11:04:55;7.18;;;2.78;;
20480;SDS011;10399;50.754;3.366;2023-07-13T11:07:27;6.97;;;2.55;;
20480;SDS011;10399;50.754;3.366;2023-07-13T11:09:59;8.15;;;2.60;;
20480;SDS011;10399;50.754;3.366;2023-07-13T11:15:14;7.95;;;2.50;;
20480;SDS011;10399;50.754;3.366;2023-07-13T11:17:56;8.48;;;3.00;;
20480;SDS011;10399;50.754;3.366;2023-07-13T11:20:31;6.05;;;2.63;;
20480;SDS011;10399;50.754;3.366;2023-07-13T11:25:34;7.03;;;2.25;;
20480;SDS011;10399;50.754;3.366;2023-07-13T11:30:41;10.48;;;2.53;;
20480;SDS011;10399;50.754;3.366;2023-07-13T11:36:05;6.07;;;2.20;;
20480;SDS011;10399;50.754;3.366;2023-07-13T11:38:39;7.30;;;2.10;;
20480;SDS011;10399;50.754;3.366;2023-07-13T11:41:19;10.10;;;2.65;;
20480;SDS011;10399;50.754;3.366;2023-07-13T11:44:12;7.43;;;1.92;;
20480;SDS011;10399;50.754;3.366;2023-07-13T11:46:48;7.93;;;2.08;;
20480;SDS011;10399;50.754;3.366;2023-07-13T11:49:25;4.93;;;1.80;;
20480;SDS011;10399;50.754;3.366;2023-07-13T11:51:58;8.23;;;1.90;;
20480;SDS011;10399;50.754;3.366;2023-07-13T11:54:28;6.50;;;1.58;;
20480;SDS011;10399;50.754;3.366;2023-07-13T11:57:33;7.25;;;1.85;;
20480;SDS011;10399;50.754;3.366;2023-07-13T11:59:53;3.55;;;1.45;;
20480;SDS011;10399;50.754;3.366;2023-07-13T12:02:27;4.60;;;1.60;;
20480;SDS011;10399;50.754;3.366;2023-07-13T12:04:58;2.92;;;1.50;;
20480;SDS011;10399;50.754;3.366;2023-07-13T12:07:29;5.45;;;1.50;;
20480;SDS011;10399;50.754;3.366;2023-07-13T12:10:17;5.40;;;1.20;;
20480;SDS011;10399;50.754;3.366;2023-07-13T12:12:56;3.63;;;1.30;;
20480;SDS011;10399;50.754;3.366;2023-07-13T12:15:38;6.90;;;1.52;;
20480;SDS011;10399;50.754;3.366;2023-07-13T12:18:13;2.90;;;1.25;;
20480;SDS011;10399;50.754;3.366;2023-07-13T12:20:49;4.05;;;1.38;;
20480;SDS011;10399;50.754;3.366;2023-07-13T12:25:54;1.88;;;1.30;;
20480;SDS011;10399;50.754;3.366;2023-07-13T12:30:58;4.35;;;1.30;;
20480;SDS011;10399;50.754;3.366;2023-07-13T12:33:28;4.45;;;1.40;;
20480;SDS011;10399;50.754;3.366;2023-07-13T12:35:57;3.67;;;1.25;;
20480;SDS011;10399;50.754;3.366;2023-07-13T12:38:30;2.38;;;1.65;;
20480;SDS011;10399;50.754;3.366;2023-07-13T12:40:58;4.72;;;1.17;;
20480;SDS011;10399;50.754;3.366;2023-07-13T12:43:28;3.25;;;1.23;;
20480;SDS011;10399;50.754;3.366;2023-07-13T12:46:03;2.42;;;1.40;;
20480;SDS011;10399;50.754;3.366;2023-07-13T12:48:42;2.65;;;1.20;;
20480;SDS011;10399;50.754;3.366;2023-07-13T12:51:25;1.75;;;0.98;;
20480;SDS011;10399;50.754;3.366;2023-07-13T12:53:57;5.95;;;1.58;;
20480;SDS011;10399;50.754;3.366;2023-07-13T12:56:48;2.38;;;1.27;;
20480;SDS011;10399;50.754;3.366;2023-07-13T12:59:20;3.10;;;1.40;;
20480;SDS011;10399;50.754;3.366;2023-07-13T13:01:49;8.15;;;1.50;;
20480;SDS011;10399;50.754;3.366;2023-07-13T13:04:17;2.38;;;1.55;;
20480;SDS011;10399;50.754;3.366;2023-07-13T13:06:49;3.17;;;1.40;;
20480;SDS011;10399;50.754;3.366;2023-07-13T13:09:26;4.97;;;1.70;;
20480;SDS011;10399;50.754;3.366;2023-07-13T13:11:54;2.28;;;1.20;;
20480;SDS011;10399;50.754;3.366;2023-07-13T13:14:21;5.25;;;1.30;;
20480;SDS011;10399;50.754;3.366;2023-07-13T13:16:49;4.40;;;1.42;;
20480;SDS011;10399;50.754;3.366;2023-07-13T13:21:53;2.20;;;1.10;;
20480;SDS011;10399;50.754;3.366;2023-07-13T13:24:23;2.92;;;1.40;;
20480;SDS011;10399;50.754;3.366;2023-07-13T13:26:52;4.88;;;1.33;;
20480;SDS011;10399;50.754;3.366;2023-07-13T13:29:21;3.20;;;1.10;;
20480;SDS011;10399;50.754;3.366;2023-07-13T13:31:53;5.10;;;1.52;;
20480;SDS011;10399;50.754;3.366;2023-07-13T13:34:22;5.05;;;1.70;;
20480;SDS011;10399;50.754;3.366;2023-07-13T13:36:51;3.33;;;1.50;;
20480;SDS011;10399;50.754;3.366;2023-07-13T13:39:25;4.35;;;1.30;;
20480;SDS011;10399;50.754;3.366;2023-07-13T13:42:03;2.38;;;1.30;;
20480;SDS011;10399;50.754;3.366;2023-07-13T13:44:31;2.67;;;1.08;;
20480;SDS011;10399;50.754;3.366;2023-07-13T13:46:59;2.85;;;1.40;;
20480;SDS011;10399;50.754;3.366;2023-07-13T13:49:26;6.43;;;1.42;;
20480;SDS011;10399;50.754;3.366;2023-07-13T13:51:54;2.55;;;1.23;;
20480;SDS011;10399;50.754;3.366;2023-07-13T13:54:23;2.30;;;0.98;;
20480;SDS011;10399;50.754;3.366;2023-07-13T13:56:52;2.47;;;1.42;;
20480;SDS011;10399;50.754;3.366;2023-07-13T13:59:20;4.03;;;1.20;;
20480;SDS011;10399;50.754;3.366;2023-07-13T14:01:47;5.22;;;1.40;;
20480;SDS011;10399;50.754;3.366;2023-07-13T14:04:20;3.17;;;1.42;;
20480;SDS011;10399;50.754;3.366;2023-07-13T14:06:48;2.40;;;1.17;;
20480;SDS011;10399;50.754;3.366;2023-07-13T14:09:17;6.93;;;1.23;;
20480;SDS011;10399;50.754;3.366;2023-07-13T14:11:46;3.53;;;1.67;;
20480;SDS011;10399;50.754;3.366;2023-07-13T14:14:17;2.08;;;1.38;;
20480;SDS011;10399;50.754;3.366;2023-07-13T14:16:50;4.80;;;1.30;;
20480;SDS011;10399;50.754;3.366;2023-07-13T14:19:22;4.65;;;1.25;;
20480;SDS011;10399;50.754;3.366;2023-07-13T14:21:49;2.92;;;1.10;;
20480;SDS011;10399;50.754;3.366;2023-07-13T14:24:19;1.85;;;1.13;;
20480;SDS011;10399;50.754;3.366;2023-07-13T14:26:47;4.03;;;1.40;;
20480;SDS011;10399;50.754;3.366;2023-07-13T14:29:16;2.60;;;1.40;;
20480;SDS011;10399;50.754;3.366;2023-07-13T14:31:49;4.60;;;1.40;;
20480;SDS011;10399;50.754;3.366;2023-07-13T14:34:16;4.95;;;1.30;;
20480;SDS011;10399;50.754;3.366;2023-07-13T14:36:47;3.38;;;1.30;;
20480;SDS011;10399;50.754;3.366;2023-07-13T14:39:23;4.57;;;1.30;;
20480;SDS011;10399;50.754;3.366;2023-07-13T14:41:52;5.13;;;1.40;;
20480;SDS011;10399;50.754;3.366;2023-07-13T14:44:22;9.20;;;2.17;;
20480;SDS011;10399;50.754;3.366;2023-07-13T14:46:52;3.83;;;1.67;;
20480;SDS011;10399;50.754;3.366;2023-07-13T14:49:29;4.05;;;1.52;;
20480;SDS011;10399;50.754;3.366;2023-07-13T14:52:00;3.40;;;1.33;;
20480;SDS011;10399;50.754;3.366;2023-07-13T14:54:30;2.60;;;1.40;;
20480;SDS011;10399;50.754;3.366;2023-07-13T14:56:58;6.35;;;1.48;;
20480;SDS011;10399;50.754;3.366;2023-07-13T14:59:25;5.32;;;1.35;;
20480;SDS011;10399;50.754;3.366;2023-07-13T15:01:52;2.10;;;1.38;;
20480;SDS011;10399;50.754;3.366;2023-07-13T15:04:21;2.67;;;1.38;;
20480;SDS011;10399;50.754;3.366;2023-07-13T15:06:56;3.85;;;1.77;;
20480;SDS011;10399;50.754;3.366;2023-07-13T15:09:26;5.47;;;1.70;;
20480;SDS011;10399;50.754;3.366;2023-07-13T15:11:55;4.60;;;1.48;;
20480;SDS011;10399;50.754;3.366;2023-07-13T15:14:23;3.35;;;1.58;;
20480;SDS011;10399;50.754;3.366;2023-07-13T15:16:52;5.28;;;1.40;;
20480;SDS011;10399;50.754;3.366;2023-07-13T15:19:22;6.00;;;1.45;;
20480;SDS011;10399;50.754;3.366;2023-07-13T15:21:50;4.78;;;1.65;;
20480;SDS011;10399;50.754;3.366;2023-07-13T15:24:18;2.47;;;1.30;;
20480;SDS011;10399;50.754;3.366;2023-07-13T15:26:47;3.53;;;1.70;;
20480;SDS011;10399;50.754;3.366;2023-07-13T15:29:15;4.63;;;1.42;;
20480;SDS011;10399;50.754;3.366;2023-07-13T15:31:43;3.63;;;1.50;;
20480;SDS011;10399;50.754;3.366;2023-07-13T15:34:12;2.08;;;1.50;;
20480;SDS011;10399;50.754;3.366;2023-07-13T15:36:43;3.90;;;1.35;;
20480;SDS011;10399;50.754;3.366;2023-07-13T15:39:14;8.30;;;1.67;;
20480;SDS011;10399;50.754;3.366;2023-07-13T15:41:43;2.03;;;1.42;;
20480;SDS011;10399;50.754;3.366;2023-07-13T15:44:22;7.40;;;1.85;;
20480;SDS011;10399;50.754;3.366;2023-07-13T15:46:50;5.70;;;1.50;;
20480;SDS011;10399;50.754;3.366;2023-07-13T15:49:17;1.90;;;1.20;;